Time;durP1;ratioP1;P1;durP2;ratioP2;P2;SDS_P1;SDS_P2;PMS_P1;PMS_P2;Temp;Humidity;BMP_temperature;BMP_pressure;BME280_temperature;BME280_humidity;BME280_pressure;Samples;Min_cycle;Max_cycle;Signal;HPM_P1;HPM_P2
2021/06/02 00:02:15;;;;;;;0.00;0.00;;;;;;;;;;4966498;28;20517;-61
2021/06/02 00:04:46;;;;;;;0.25;0.25;;;;;;;;;;4965400;28;21096;-61
2021/06/02 00:07:26;;;;;;;0.00;0.00;;;;;;;;;;4951729;28;20329;-61
2021/06/02 00:09:54;;;;;;;7.90;1.45;;;;;;;;;;4966117;28;20026;-61
2021/06/02 00:12:20;;;;;;;0.00;0.00;;;;;;;;;;4944463;28;20088;-61
2021/06/02 00:14:46;;;;;;;0.00;0.00;;;;;;;;;;4948983;28;20038;-61
2021/06/02 00:17:11;;;;;;;0.00;0.00;;;;;;;;;;4943427;28;20062;-61
2021/06/02 00:19:37;;;;;;;0.00;0.00;;;;;;;;;;4954413;28;20041;-61
2021/06/02 00:22:04;;;;;;;0.13;0.13;;;;;;;;;;4965507;28;20788;-61
2021/06/02 00:24:30;;;;;;;0.00;0.00;;;;;;;;;;4961820;28;20042;-62
2021/06/02 00:26:59;;;;;;;0.00;0.00;;;;;;;;;;4963799;28;20098;-61
2021/06/02 00:29:25;;;;;;;0.00;0.00;;;;;;;;;;4931972;28;21332;-61
2021/06/02 00:31:52;;;;;;;0.10;0.10;;;;;;;;;;4932421;28;20089;-61
2021/06/02 00:34:26;;;;;;;0.00;0.00;;;;;;;;;;4950306;28;20121;-61
2021/06/02 00:36:54;;;;;;;0.00;0.00;;;;;;;;;;4947972;28;20253;-61
2021/06/02 00:39:21;;;;;;;0.00;0.00;;;;;;;;;;4964694;28;20409;-60
2021/06/02 00:41:50;;;;;;;0.00;0.00;;;;;;;;;;4949690;28;20291;-61
2021/06/02 00:44:17;;;;;;;0.00;0.00;;;;;;;;;;4947211;28;20489;-61
2021/06/02 00:46:46;;;;;;;0.00;0.00;;;;;;;;;;4963528;28;20057;-61
2021/06/02 00:49:16;;;;;;;0.00;0.00;;;;;;;;;;4966336;28;20981;-60
2021/06/02 00:51:41;;;;;;;0.00;0.00;;;;;;;;;;4947487;28;20030;-60
2021/06/02 00:54:07;;;;;;;0.00;0.00;;;;;;;;;;4947979;28;20077;-60
2021/06/02 00:56:50;;;;;;;0.03;0.03;;;;;;;;;;4965119;28;20041;-61
2021/06/02 00:59:20;;;;;;;0.00;0.00;;;;;;;;;;4954043;28;20115;-61
2021/06/02 01:01:47;;;;;;;0.00;0.00;;;;;;;;;;4950310;28;20030;-60
2021/06/02 01:04:12;;;;;;;0.00;0.00;;;;;;;;;;4964649;28;20035;-60
2021/06/02 01:06:40;;;;;;;0.20;0.20;;;;;;;;;;4966534;28;20030;-61
2021/06/02 01:09:07;;;;;;;0.95;0.73;;;;;;;;;;4964049;28;20026;-60
2021/06/02 01:11:36;;;;;;;0.00;0.00;;;;;;;;;;4965674;28;20035;-60
2021/06/02 01:14:02;;;;;;;0.00;0.00;;;;;;;;;;4965871;28;20041;-61
2021/06/02 01:16:29;;;;;;;0.00;0.00;;;;;;;;;;4947053;28;20089;-61
2021/06/02 01:18:57;;;;;;;0.13;0.13;;;;;;;;;;4965852;28;20034;-61
2021/06/02 01:21:24;;;;;;;0.00;0.00;;;;;;;;;;4947518;28;20041;-62
2021/06/02 01:23:51;;;;;;;0.00;0.00;;;;;;;;;;4947432;28;20056;-60
2021/06/02 01:26:17;;;;;;;0.00;0.00;;;;;;;;;;4955099;28;20133;-60
2021/06/02 01:28:47;;;;;;;0.00;0.00;;;;;;;;;;4964481;28;20039;-58
2021/06/02 01:31:42;;;;;;;0.00;0.00;;;;;;;;;;4964265;28;20045;-59
2021/06/02 01:34:10;;;;;;;0.00;0.00;;;;;;;;;;4955241;28;20092;-60
2021/06/02 01:36:51;;;;;;;0.00;0.00;;;;;;;;;;4949078;28;20034;-60
2021/06/02 01:39:28;;;;;;;3.00;0.22;;;;;;;;;;4965104;28;20747;-61
2021/06/02 01:42:10;;;;;;;0.03;0.03;;;;;;;;;;4961769;28;20065;-61
2021/06/02 01:44:49;;;;;;;0.00;0.00;;;;;;;;;;4965554;28;20038;-61
2021/06/02 01:47:20;;;;;;;0.10;0.10;;;;;;;;;;4946234;28;20035;-61
2021/06/02 01:50:04;;;;;;;0.00;0.00;;;;;;;;;;4965201;28;20073;-61
2021/06/02 01:52:51;;;;;;;0.00;0.00;;;;;;;;;;4961766;28;20026;-64
2021/06/02 01:55:34;;;;;;;0.00;0.00;;;;;;;;;;4962764;28;20615;-61
2021/06/02 01:58:03;;;;;;;0.00;0.00;;;;;;;;;;4932163;28;20135;-61
2021/06/02 02:00:43;;;;;;;0.10;0.10;;;;;;;;;;4946973;28;20034;-61
2021/06/02 02:03:29;;;;;;;0.00;0.00;;;;;;;;;;4945361;28;20032;-61
2021/06/02 02:06:03;;;;;;;0.00;0.00;;;;;;;;;;4962052;28;20552;-60
2021/06/02 02:08:43;;;;;;;0.00;0.00;;;;;;;;;;4932899;28;20035;-61
2021/06/02 02:11:31;;;;;;;0.00;0.00;;;;;;;;;;4948099;28;20087;-62
2021/06/02 02:14:04;;;;;;;0.00;0.00;;;;;;;;;;4962746;28;20051;-60
2021/06/02 02:16:43;;;;;;;0.00;0.00;;;;;;;;;;4945477;28;20030;-61
2021/06/02 02:19:27;;;;;;;0.10;0.10;;;;;;;;;;4948731;28;20027;-60
2021/06/02 02:22:11;;;;;;;0.25;0.25;;;;;;;;;;4966393;28;20030;-60
2021/06/02 02:25:00;;;;;;;0.00;0.00;;;;;;;;;;4945109;28;20065;-60
2021/06/02 02:27:31;;;;;;;0.00;0.00;;;;;;;;;;4966653;28;20034;-61
2021/06/02 02:29:57;;;;;;;0.00;0.00;;;;;;;;;;4950539;28;20091;-60
2021/06/02 02:32:34;;;;;;;0.20;0.20;;;;;;;;;;4948376;28;20030;-60
2021/06/02 02:35:11;;;;;;;0.00;0.00;;;;;;;;;;4965122;28;20042;-61
2021/06/02 02:37:47;;;;;;;0.00;0.00;;;;;;;;;;4945982;28;20034;-61
2021/06/02 02:40:18;;;;;;;0.10;0.03;;;;;;;;;;4936336;28;20068;-61
2021/06/02 02:42:46;;;;;;;0.00;0.00;;;;;;;;;;4965355;28;20038;-63
2021/06/02 02:45:22;;;;;;;0.00;0.00;;;;;;;;;;4960979;28;20046;-62
2021/06/02 02:47:57;;;;;;;0.00;0.00;;;;;;;;;;4963955;28;20711;-60
2021/06/02 02:50:32;;;;;;;0.00;0.00;;;;;;;;;;4967699;28;20026;-60
2021/06/02 02:53:01;;;;;;;0.00;0.00;;;;;;;;;;4927369;28;1123558;-61
2021/06/02 02:55:28;;;;;;;0.00;0.00;;;;;;;;;;4946819;28;20037;-61
2021/06/02 02:57:57;;;;;;;0.00;0.00;;;;;;;;;;4960905;28;20034;-61
2021/06/02 03:00:31;;;;;;;0.20;0.20;;;;;;;;;;4969299;28;20947;-60
2021/06/02 03:03:02;;;;;;;0.00;0.00;;;;;;;;;;4932394;28;20146;-60
2021/06/02 03:05:32;;;;;;;0.00;0.00;;;;;;;;;;4950913;28;20034;-60
2021/06/02 03:08:09;;;;;;;0.00;0.00;;;;;;;;;;4952821;28;20054;-61
2021/06/02 03:10:40;;;;;;;0.00;0.00;;;;;;;;;;4949976;28;20397;-61
2021/06/02 03:13:24;;;;;;;0.00;0.00;;;;;;;;;;4966713;28;20061;-60
2021/06/02 03:15:58;;;;;;;0.00;0.00;;;;;;;;;;4965977;28;20030;-61
2021/06/02 03:18:33;;;;;;;0.35;0.35;;;;;;;;;;4932967;28;20608;-60
2021/06/02 03:20:59;;;;;;;;;;;;;;;;;;4931445;28;20046;-60
2021/06/02 03:23:27;;;;;;;0.00;0.00;;;;;;;;;;4967333;28;20555;-59
2021/06/02 03:25:52;;;;;;;0.25;0.25;;;;;;;;;;4935000;28;20073;-61
2021/06/02 03:28:41;;;;;;;0.20;0.20;;;;;;;;;;4965898;28;20157;-61
2021/06/02 03:31:06;;;;;;;0.20;0.20;;;;;;;;;;4949699;28;20046;-62
2021/06/02 03:33:50;;;;;;;0.38;0.38;;;;;;;;;;4950109;28;20031;-61
2021/06/02 03:36:40;;;;;;;0.00;0.00;;;;;;;;;;4967545;28;20050;-60
2021/06/02 03:39:12;;;;;;;0.10;0.10;;;;;;;;;;4968055;28;20065;-62
2021/06/02 03:41:41;;;;;;;0.00;0.00;;;;;;;;;;4966499;28;20046;-60
2021/06/02 03:44:14;;;;;;;0.08;0.08;;;;;;;;;;4950181;28;20088;-60
2021/06/02 03:46:49;;;;;;;0.60;0.60;;;;;;;;;;4948296;28;20122;-60
2021/06/02 03:49:34;;;;;;;0.20;0.20;;;;;;;;;;4950039;28;20125;-60
2021/06/02 03:52:04;;;;;;;0.20;0.20;;;;;;;;;;4955543;28;20541;-61
2021/06/02 03:54:46;;;;;;;0.28;0.28;;;;;;;;;;4965664;28;20053;-61
2021/06/02 03:57:17;;;;;;;0.10;0.10;;;;;;;;;;4933806;28;20034;-60
2021/06/02 03:59:51;;;;;;;1.17;0.47;;;;;;;;;;4950397;28;20092;-61
2021/06/02 04:02:25;;;;;;;0.35;0.35;;;;;;;;;;4965675;28;20030;-63
2021/06/02 04:05:06;;;;;;;0.00;0.00;;;;;;;;;;4965351;28;20073;-61
2021/06/02 04:07:38;;;;;;;1.65;0.45;;;;;;;;;;4951817;28;20027;-62
2021/06/02 04:10:04;;;;;;;0.10;0.10;;;;;;;;;;4950942;28;20134;-62
2021/06/02 04:12:48;;;;;;;0.00;0.00;;;;;;;;;;4954792;28;20506;-62
2021/06/02 04:15:15;;;;;;;0.43;0.43;;;;;;;;;;4967173;28;20125;-62
2021/06/02 04:17:49;;;;;;;0.22;0.22;;;;;;;;;;4965861;28;20026;-62
2021/06/02 04:20:18;;;;;;;0.00;0.00;;;;;;;;;;4966680;28;20034;-62
2021/06/02 04:22:47;;;;;;;0.43;0.43;;;;;;;;;;4964864;28;20572;-62
2021/06/02 04:25:19;;;;;;;0.00;0.00;;;;;;;;;;4949107;28;20048;-62
2021/06/02 04:27:46;;;;;;;0.05;0.05;;;;;;;;;;4943867;28;20026;-62
2021/06/02 04:30:13;;;;;;;0.20;0.20;;;;;;;;;;4956345;28;20041;-60
2021/06/02 04:32:42;;;;;;;0.20;0.20;;;;;;;;;;4965862;28;20038;-61
2021/06/02 04:35:09;;;;;;;0.03;0.03;;;;;;;;;;4951683;28;20537;-61
2021/06/02 04:37:35;;;;;;;0.10;0.10;;;;;;;;;;4948199;28;20096;-61
2021/06/02 04:40:05;;;;;;;0.22;0.22;;;;;;;;;;4950890;28;20482;-60
2021/06/02 04:42:33;;;;;;;0.13;0.13;;;;;;;;;;4940798;28;20136;-63
2021/06/02 04:45:02;;;;;;;1.85;0.65;;;;;;;;;;4963877;28;20038;-61
2021/06/02 04:47:29;;;;;;;2.55;0.68;;;;;;;;;;4946716;28;20794;-64
2021/06/02 04:50:07;;;;;;;0.00;0.00;;;;;;;;;;4946949;28;20030;-62
2021/06/02 04:52:33;;;;;;;0.00;0.00;;;;;;;;;;4954978;28;20019;-62
2021/06/02 04:55:17;;;;;;;0.30;0.30;;;;;;;;;;4946910;28;20096;-62
2021/06/02 04:58:07;;;;;;;0.00;0.00;;;;;;;;;;4927035;28;20469;-62
2021/06/02 05:00:51;;;;;;;0.45;0.30;;;;;;;;;;4963693;28;20426;-61
2021/06/02 05:03:23;;;;;;;1.35;0.52;;;;;;;;;;4946736;28;21064;-62
2021/06/02 05:06:09;;;;;;;1.80;0.30;;;;;;;;;;4962583;28;20034;-63
2021/06/02 05:08:35;;;;;;;0.10;0.10;;;;;;;;;;4964750;28;20033;-62
2021/06/02 05:11:19;;;;;;;0.00;0.00;;;;;;;;;;4964082;28;20030;-62
2021/06/02 05:14:17;;;;;;;0.08;0.08;;;;;;;;;;4964448;28;20450;-63
2021/06/02 05:17:01;;;;;;;0.00;0.00;;;;;;;;;;4926594;28;20034;-62
2021/06/02 05:22:13;;;;;;;0.03;0.03;;;;;;;;;;4951454;28;20038;-64
2021/06/02 05:24:42;;;;;;;0.22;0.13;;;;;;;;;;4933744;28;20053;-64
2021/06/02 05:27:19;;;;;;;0.82;0.80;;;;;;;;;;4964262;28;20022;-64
2021/06/02 05:30:04;;;;;;;0.20;0.20;;;;;;;;;;4962997;28;20034;-64
2021/06/02 05:32:44;;;;;;;0.10;0.10;;;;;;;;;;4963779;28;20049;-64
2021/06/02 05:35:21;;;;;;;0.70;0.70;;;;;;;;;;4945920;28;20078;-64
2021/06/02 05:37:52;;;;;;;0.00;0.00;;;;;;;;;;4965195;28;20030;-62
2021/06/02 05:40:37;;;;;;;0.20;0.20;;;;;;;;;;4947800;28;20984;-62
2021/06/02 05:43:18;;;;;;;0.73;0.20;;;;;;;;;;4947544;28;20125;-61
2021/06/02 05:45:46;;;;;;;0.03;0.03;;;;;;;;;;4946845;28;20714;-63
2021/06/02 05:48:32;;;;;;;0.30;0.30;;;;;;;;;;4963010;28;20611;-63
2021/06/02 05:51:04;;;;;;;0.00;0.00;;;;;;;;;;4947414;28;20450;-63
2021/06/02 05:53:49;;;;;;;0.52;0.52;;;;;;;;;;4947891;28;20022;-66
2021/06/02 05:56:29;;;;;;;0.00;0.00;;;;;;;;;;4964198;28;20046;-63
2021/06/02 05:58:58;;;;;;;0.00;0.00;;;;;;;;;;4962882;28;20038;-63
2021/06/02 06:01:23;;;;;;;3.83;0.68;;;;;;;;;;4964046;28;20142;-63
2021/06/02 06:03:49;;;;;;;0.17;0.17;;;;;;;;;;4964229;28;20034;-61
2021/06/02 06:06:22;;;;;;;0.00;0.00;;;;;;;;;;4963442;28;20033;-63
2021/06/02 06:09:18;;;;;;;0.00;0.00;;;;;;;;;;4965192;28;20413;-64
2021/06/02 06:11:49;;;;;;;0.52;0.47;;;;;;;;;;4945516;28;20097;-62
2021/06/02 06:14:36;;;;;;;0.00;0.00;;;;;;;;;;4961747;28;20066;-63
2021/06/02 06:17:07;;;;;;;0.28;0.28;;;;;;;;;;4945773;28;20034;-64
2021/06/02 06:19:39;;;;;;;0.10;0.10;;;;;;;;;;4931894;28;20739;-64
2021/06/02 06:22:13;;;;;;;0.20;0.20;;;;;;;;;;4946419;28;20116;-63
2021/06/02 06:24:39;;;;;;;0.00;0.00;;;;;;;;;;4962583;28;20122;-63
2021/06/02 06:27:08;;;;;;;0.10;0.10;;;;;;;;;;4962594;28;20088;-63
2021/06/02 06:29:49;;;;;;;0.00;0.00;;;;;;;;;;4961879;28;20032;-64
2021/06/02 06:32:15;;;;;;;0.63;0.63;;;;;;;;;;4961004;28;20026;-64
2021/06/02 06:34:41;;;;;;;0.08;0.08;;;;;;;;;;4931408;28;20925;-63
2021/06/02 06:37:08;;;;;;;0.10;0.10;;;;;;;;;;4959148;28;20247;-64
2021/06/02 06:39:46;;;;;;;0.03;0.03;;;;;;;;;;4947537;28;20035;-64
2021/06/02 06:42:16;;;;;;;0.98;0.20;;;;;;;;;;4962261;28;20101;-64
2021/06/02 06:44:43;;;;;;;0.10;0.10;;;;;;;;;;4941970;28;20037;-65
2021/06/02 06:47:09;;;;;;;0.00;0.00;;;;;;;;;;4945946;28;20479;-64
2021/06/02 06:49:36;;;;;;;1.05;0.38;;;;;;;;;;4964090;28;20077;-65
2021/06/02 06:52:02;;;;;;;0.10;0.10;;;;;;;;;;4960953;28;20026;-63
2021/06/02 06:54:29;;;;;;;0.20;0.20;;;;;;;;;;4962224;28;20674;-65
2021/06/02 06:56:57;;;;;;;0.17;0.17;;;;;;;;;;4961346;28;20065;-64
2021/06/02 06:59:23;;;;;;;0.00;0.00;;;;;;;;;;4953696;28;20066;-66
2021/06/02 07:01:49;;;;;;;0.10;0.08;;;;;;;;;;4961555;28;20034;-65
2021/06/02 07:04:14;;;;;;;1.75;0.85;;;;;;;;;;4963550;28;20030;-65
2021/06/02 07:06:43;;;;;;;0.00;0.00;;;;;;;;;;4966044;28;20113;-64
2021/06/02 07:09:09;;;;;;;0.43;0.43;;;;;;;;;;4933592;28;20153;-64
2021/06/02 07:11:41;;;;;;;2.85;0.63;;;;;;;;;;4929143;28;20049;-64
2021/06/02 07:14:18;;;;;;;0.73;0.10;;;;;;;;;;4950453;28;20491;-63
2021/06/02 07:16:45;;;;;;;0.10;0.10;;;;;;;;;;4966295;28;20546;-63
2021/06/02 07:19:11;;;;;;;0.00;0.00;;;;;;;;;;4965826;28;20076;-63
2021/06/02 07:21:39;;;;;;;0.80;0.22;;;;;;;;;;4968305;28;20417;-62
2021/06/02 07:24:06;;;;;;;0.10;0.10;;;;;;;;;;4965481;28;20128;-64
2021/06/02 07:26:32;;;;;;;0.17;0.15;;;;;;;;;;4965954;28;20038;-64
2021/06/02 07:28:58;;;;;;;0.30;0.30;;;;;;;;;;4965651;28;20050;-64
2021/06/02 07:31:25;;;;;;;0.10;0.10;;;;;;;;;;4967219;28;20046;-64
2021/06/02 07:33:53;;;;;;;0.00;0.00;;;;;;;;;;4965987;28;20046;-65
2021/06/02 07:36:22;;;;;;;0.10;0.10;;;;;;;;;;4967050;28;20027;-63
2021/06/02 07:38:47;;;;;;;0.00;0.00;;;;;;;;;;4944844;28;20580;-64
2021/06/02 07:41:14;;;;;;;0.00;0.00;;;;;;;;;;4966062;28;20289;-64
2021/06/02 07:43:40;;;;;;;0.03;0.03;;;;;;;;;;4934376;28;20041;-63
2021/06/02 07:46:07;;;;;;;1.27;0.77;;;;;;;;;;4967751;28;20108;-64
2021/06/02 07:48:32;;;;;;;0.10;0.10;;;;;;;;;;4962886;28;20812;-64
2021/06/02 07:50:58;;;;;;;0.00;0.00;;;;;;;;;;4935622;28;20089;-62
2021/06/02 07:53:24;;;;;;;0.00;0.00;;;;;;;;;;4966790;28;20069;-64
2021/06/02 07:55:52;;;;;;;0.00;0.00;;;;;;;;;;4951287;28;20803;-64
2021/06/02 07:58:18;;;;;;;0.15;0.15;;;;;;;;;;4967428;28;20031;-65
2021/06/02 08:00:44;;;;;;;0.00;0.00;;;;;;;;;;4948560;28;20042;-64
2021/06/02 08:03:12;;;;;;;0.10;0.10;;;;;;;;;;4927901;28;20022;-63
2021/06/02 08:05:40;;;;;;;0.32;0.22;;;;;;;;;;4933010;28;20043;-63
2021/06/02 08:08:08;;;;;;;0.15;0.10;;;;;;;;;;4949269;28;20050;-63
2021/06/02 08:10:34;;;;;;;0.00;0.00;;;;;;;;;;4963746;28;20043;-61
2021/06/02 08:13:02;;;;;;;1.15;0.00;;;;;;;;;;4949738;28;20121;-64
2021/06/02 08:15:30;;;;;;;0.47;0.22;;;;;;;;;;4963580;28;20042;-64
2021/06/02 08:17:56;;;;;;;0.00;0.00;;;;;;;;;;4963096;28;20035;-64
2021/06/02 08:20:23;;;;;;;0.00;0.00;;;;;;;;;;4943860;28;20022;-64
2021/06/02 08:22:51;;;;;;;0.17;0.17;;;;;;;;;;4951028;28;20057;-64
2021/06/02 08:25:18;;;;;;;0.00;0.00;;;;;;;;;;4950697;28;20038;-65
2021/06/02 08:27:45;;;;;;;0.00;0.00;;;;;;;;;;4961350;28;20564;-65
2021/06/02 08:30:11;;;;;;;0.32;0.15;;;;;;;;;;4938968;28;20030;-65
2021/06/02 08:32:37;;;;;;;0.35;0.15;;;;;;;;;;4964612;28;20727;-65
2021/06/02 08:35:04;;;;;;;0.22;0.22;;;;;;;;;;4965686;28;21070;-66
2021/06/02 08:37:30;;;;;;;0.00;0.00;;;;;;;;;;4964798;28;20514;-63
2021/06/02 08:39:55;;;;;;;0.00;0.00;;;;;;;;;;4946182;28;20058;-65
2021/06/02 08:42:21;;;;;;;0.00;0.00;;;;;;;;;;4947292;28;20062;-67
2021/06/02 08:44:50;;;;;;;0.45;0.45;;;;;;;;;;4948704;28;20023;-63
2021/06/02 08:47:19;;;;;;;0.20;0.10;;;;;;;;;;4950304;28;20048;-64
2021/06/02 08:49:47;;;;;;;0.00;0.00;;;;;;;;;;4932623;28;20034;-63
2021/06/02 08:52:15;;;;;;;0.10;0.03;;;;;;;;;;4965320;28;20130;-65
2021/06/02 08:54:43;;;;;;;0.35;0.25;;;;;;;;;;4947394;28;20049;-63
2021/06/02 08:57:12;;;;;;;0.00;0.00;;;;;;;;;;4943470;28;20132;-63
2021/06/02 08:59:37;;;;;;;0.00;0.00;;;;;;;;;;4931412;28;21119;-64
2021/06/02 09:02:03;;;;;;;0.40;0.40;;;;;;;;;;4946449;28;20032;-66
2021/06/02 09:04:31;;;;;;;0.17;0.15;;;;;;;;;;4960205;28;20038;-63
2021/06/02 09:06:56;;;;;;;0.00;0.00;;;;;;;;;;4947677;28;20120;-64
2021/06/02 09:09:25;;;;;;;0.63;0.28;;;;;;;;;;4965957;28;20038;-65
2021/06/02 09:11:51;;;;;;;0.00;0.00;;;;;;;;;;4963870;28;20775;-66
2021/06/02 09:14:25;;;;;;;0.00;0.00;;;;;;;;;;4932469;28;20053;-65
2021/06/02 09:16:52;;;;;;;0.00;0.00;;;;;;;;;;4947217;28;20034;-64
2021/06/02 09:19:30;;;;;;;0.00;0.00;;;;;;;;;;4959654;28;20027;-65
2021/06/02 09:21:59;;;;;;;0.00;0.00;;;;;;;;;;4964942;28;20034;-65
2021/06/02 09:24:44;;;;;;;0.13;0.13;;;;;;;;;;4964476;28;20046;-65
2021/06/02 09:27:10;;;;;;;0.10;0.08;;;;;;;;;;4965574;28;20023;-65
2021/06/02 09:29:52;;;;;;;0.25;0.00;;;;;;;;;;4948977;28;20092;-65
2021/06/02 09:32:21;;;;;;;0.10;0.10;;;;;;;;;;4963064;28;20483;-65
2021/06/02 09:34:47;;;;;;;0.00;0.00;;;;;;;;;;4966033;28;20034;-65
2021/06/02 09:37:15;;;;;;;0.00;0.00;;;;;;;;;;4964558;28;20033;-65
2021/06/02 09:39:43;;;;;;;0.00;0.00;;;;;;;;;;4962478;28;20157;-66
2021/06/02 09:42:27;;;;;;;0.00;0.00;;;;;;;;;;4963941;28;20654;-66
2021/06/02 09:45:22;;;;;;;0.05;0.05;;;;;;;;;;4964759;28;20519;-66
2021/06/02 09:47:52;;;;;;;0.00;0.00;;;;;;;;;;4944202;28;20065;-64
2021/06/02 09:50:28;;;;;;;1.95;1.33;;;;;;;;;;4962958;28;20655;-67
2021/06/02 09:52:55;;;;;;;6.85;1.48;;;;;;;;;;4947403;28;20042;-66
2021/06/02 09:55:28;;;;;;;3.45;0.93;;;;;;;;;;4950121;28;20470;-66
2021/06/02 09:57:55;;;;;;;1.27;1.00;;;;;;;;;;4963598;28;20050;-64
2021/06/02 10:00:21;;;;;;;1.60;1.17;;;;;;;;;;4932321;28;20030;-68
2021/06/02 10:02:59;;;;;;;2.75;1.10;;;;;;;;;;4945244;28;20116;-66
2021/06/02 10:05:33;;;;;;;1.33;1.10;;;;;;;;;;4930603;28;21016;-66
2021/06/02 10:07:59;;;;;;;2.60;1.00;;;;;;;;;;4958786;28;20121;-65
2021/06/02 10:10:26;;;;;;;1.60;1.45;;;;;;;;;;4963056;28;20035;-66
2021/06/02 10:13:02;;;;;;;1.30;1.20;;;;;;;;;;4963608;28;20157;-66
2021/06/02 10:15:35;;;;;;;1.20;1.10;;;;;;;;;;4946409;28;20038;-64
2021/06/02 10:18:04;;;;;;;3.22;1.25;;;;;;;;;;4931293;28;20774;-65
2021/06/02 10:20:32;;;;;;;2.97;1.23;;;;;;;;;;4948329;28;20746;-66
2021/06/02 10:22:59;;;;;;;2.38;1.23;;;;;;;;;;4964990;28;20720;-66
2021/06/02 10:25:25;;;;;;;1.67;1.35;;;;;;;;;;4946531;28;20065;-67
2021/06/02 10:27:53;;;;;;;1.05;0.98;;;;;;;;;;4960574;28;20030;-65
2021/06/02 10:30:19;;;;;;;1.95;0.98;;;;;;;;;;4948252;28;20104;-67
2021/06/02 10:32:45;;;;;;;2.05;1.10;;;;;;;;;;4948182;28;20509;-66
2021/06/02 10:35:11;;;;;;;1.00;0.90;;;;;;;;;;4964399;28;20034;-65
2021/06/02 10:37:43;;;;;;;1.20;1.10;;;;;;;;;;4964373;28;20035;-70
2021/06/02 10:40:11;;;;;;;1.60;1.00;;;;;;;;;;4964876;28;20038;-64
2021/06/02 10:42:37;;;;;;;1.77;0.98;;;;;;;;;;4967507;28;20103;-66
2021/06/02 10:45:07;;;;;;;2.38;1.05;;;;;;;;;;4967134;28;20486;-66
2021/06/02 10:47:32;;;;;;;2.83;1.20;;;;;;;;;;4966534;28;21355;-63
2021/06/02 10:49:58;;;;;;;1.67;1.00;;;;;;;;;;4967056;28;20027;-66
2021/06/02 10:52:38;;;;;;;1.70;1.10;;;;;;;;;;4957514;28;20125;-65
2021/06/02 10:55:22;;;;;;;0.95;0.85;;;;;;;;;;4942064;28;20042;-65
2021/06/02 10:58:13;;;;;;;1.15;0.90;;;;;;;;;;4937478;28;20054;-65
2021/06/02 11:00:44;;;;;;;3.08;0.93;;;;;;;;;;4964199;28;20049;-65
2021/06/02 11:03:19;;;;;;;2.42;1.20;;;;;;;;;;4967806;28;20030;-66
2021/06/02 11:05:54;;;;;;;2.85;1.08;;;;;;;;;;4966653;28;20049;-66
2021/06/02 11:08:20;;;;;;;1.40;1.20;;;;;;;;;;4967152;28;20504;-66
2021/06/02 11:10:51;;;;;;;1.73;1.20;;;;;;;;;;4931374;28;20040;-63
2021/06/02 11:13:17;;;;;;;1.27;1.02;;;;;;;;;;4961193;28;20034;-65
2021/06/02 11:15:43;;;;;;;2.70;1.52;;;;;;;;;;4949954;28;20921;-65
2021/06/02 11:18:11;;;;;;;1.85;0.90;;;;;;;;;;4966461;28;20034;-65
2021/06/02 11:20:43;;;;;;;4.47;1.27;;;;;;;;;;4948720;28;20037;-65
2021/06/02 11:23:10;;;;;;;3.15;0.90;;;;;;;;;;4950838;28;20068;-65
2021/06/02 11:25:39;;;;;;;2.67;1.38;;;;;;;;;;4947852;28;20050;-64
2021/06/02 11:28:09;;;;;;;6.13;1.00;;;;;;;;;;4966322;28;20038;-66
2021/06/02 11:30:35;;;;;;;1.92;1.27;;;;;;;;;;4964842;28;20031;-64
2021/06/02 11:33:11;;;;;;;3.05;1.42;;;;;;;;;;4932761;28;22098;-64
2021/06/02 11:35:56;;;;;;;1.30;1.20;;;;;;;;;;4961642;28;20039;-65
2021/06/02 11:38:25;;;;;;;3.63;1.48;;;;;;;;;;4944912;28;20027;-64
2021/06/02 11:40:51;;;;;;;2.17;1.38;;;;;;;;;;4961734;28;20030;-64
2021/06/02 11:43:16;;;;;;;2.28;1.50;;;;;;;;;;4964989;28;20074;-65
2021/06/02 11:45:46;;;;;;;2.85;1.30;;;;;;;;;;4948750;28;20034;-65
2021/06/02 11:48:12;;;;;;;2.15;1.25;;;;;;;;;;4957909;28;20125;-65
2021/06/02 11:50:37;;;;;;;1.35;1.13;;;;;;;;;;4948784;28;20060;-65
2021/06/02 11:53:03;;;;;;;2.92;1.63;;;;;;;;;;4953372;28;20034;-65
2021/06/02 11:55:30;;;;;;;1.58;1.00;;;;;;;;;;4962773;28;20168;-65
2021/06/02 11:57:55;;;;;;;1.98;1.17;;;;;;;;;;4963662;28;20058;-65
2021/06/02 12:00:22;;;;;;;3.40;1.40;;;;;;;;;;4961907;28;20828;-65
2021/06/02 12:02:54;;;;;;;2.65;1.50;;;;;;;;;;4946861;28;21465;-65
2021/06/02 12:05:24;;;;;;;1.25;1.15;;;;;;;;;;4947215;28;20087;-64
2021/06/02 12:07:56;;;;;;;1.38;1.17;;;;;;;;;;4930070;28;20030;-65
2021/06/02 12:10:22;;;;;;;3.90;1.30;;;;;;;;;;4965738;28;20030;-67
2021/06/02 12:12:48;;;;;;;1.35;1.25;;;;;;;;;;4959872;28;20081;-65
2021/06/02 12:15:15;;;;;;;2.80;1.27;;;;;;;;;;4963697;28;20034;-64
2021/06/02 12:17:45;;;;;;;1.80;1.15;;;;;;;;;;4949380;28;20026;-64
2021/06/02 12:20:18;;;;;;;1.90;1.05;;;;;;;;;;4948799;28;20037;-65
2021/06/02 12:22:44;;;;;;;3.05;1.30;;;;;;;;;;4965353;28;20088;-65
2021/06/02 12:25:15;;;;;;;1.27;1.17;;;;;;;;;;4964500;28;20038;-63
2021/06/02 12:27:43;;;;;;;2.42;0.98;;;;;;;;;;4947885;28;20562;-64
2021/06/02 12:30:12;;;;;;;3.13;1.10;;;;;;;;;;4933441;28;20053;-64
2021/06/02 12:32:45;;;;;;;2.42;1.00;;;;;;;;;;4962178;28;20034;-65
2021/06/02 12:35:27;;;;;;;1.33;0.85;;;;;;;;;;4949180;28;20034;-65
2021/06/02 12:38:13;;;;;;;2.08;1.15;;;;;;;;;;4963954;28;20045;-65
2021/06/02 12:40:40;;;;;;;6.85;1.08;;;;;;;;;;4947263;28;20057;-63
2021/06/02 12:43:25;;;;;;;1.92;1.27;;;;;;;;;;4946361;28;20049;-63
2021/06/02 12:46:11;;;;;;;2.88;1.15;;;;;;;;;;4947840;28;20053;-64
2021/06/02 12:48:55;;;;;;;1.05;0.90;;;;;;;;;;4961151;28;20112;-65
2021/06/02 12:51:42;;;;;;;1.35;0.90;;;;;;;;;;4961353;28;20053;-63
2021/06/02 12:54:27;;;;;;;4.35;1.17;;;;;;;;;;4954199;28;20053;-65
2021/06/02 12:57:12;;;;;;;2.42;1.10;;;;;;;;;;4963951;28;20053;-63
2021/06/02 12:59:56;;;;;;;3.58;0.90;;;;;;;;;;4971868;28;20136;-64
2021/06/02 13:02:40;;;;;;;1.98;1.13;;;;;;;;;;4954879;28;20082;-66
2021/06/02 13:05:25;;;;;;;5.15;1.25;;;;;;;;;;4965245;28;20077;-66
2021/06/02 13:08:11;;;;;;;3.05;1.30;;;;;;;;;;4947665;28;20057;-66
2021/06/02 13:11:04;;;;;;;3.50;1.15;;;;;;;;;;4967136;28;20692;-64
2021/06/02 13:13:49;;;;;;;1.95;1.27;;;;;;;;;;4944363;28;20057;-63
2021/06/02 13:16:36;;;;;;;4.30;1.52;;;;;;;;;;4948625;28;20186;-62
2021/06/02 13:19:41;;;;;;;3.65;1.30;;;;;;;;;;4937970;28;20045;-64
2021/06/02 13:22:26;;;;;;;1.48;1.23;;;;;;;;;;4963077;28;20041;-66
2021/06/02 13:25:10;;;;;;;2.00;1.60;;;;;;;;;;4960874;28;20112;-65
2021/06/02 13:28:02;;;;;;;4.82;1.83;;;;;;;;;;4946129;28;20085;-63
2021/06/02 13:30:46;;;;;;;3.92;1.27;;;;;;;;;;4963058;28;20157;-63
2021/06/02 13:33:39;;;;;;;1.83;1.25;;;;;;;;;;4963171;28;20120;-64
2021/06/02 13:36:24;;;;;;;3.05;1.63;;;;;;;;;;4942803;28;20045;-65
2021/06/02 13:39:12;;;;;;;2.25;1.60;;;;;;;;;;4963006;28;20060;-65
2021/06/02 13:41:57;;;;;;;4.20;1.23;;;;;;;;;;4959849;28;20536;-65
2021/06/02 13:44:44;;;;;;;2.00;1.40;;;;;;;;;;4950197;28;20116;-64
2021/06/02 13:47:31;;;;;;;3.47;1.55;;;;;;;;;;4962252;28;21137;-63
2021/06/02 13:50:15;;;;;;;2.22;1.40;;;;;;;;;;4945656;28;20050;-63
2021/06/02 13:53:12;;;;;;;2.92;1.35;;;;;;;;;;4966242;28;20173;-64
2021/06/02 13:55:57;;;;;;;4.47;1.75;;;;;;;;;;4962579;28;20129;-65
2021/06/02 13:58:41;;;;;;;1.63;1.50;;;;;;;;;;4953650;28;20061;-65
2021/06/02 14:01:25;;;;;;;3.47;1.50;;;;;;;;;;4961173;28;20046;-65
2021/06/02 14:04:12;;;;;;;1.52;1.27;;;;;;;;;;4950981;28;22162;-65
2021/06/02 14:06:58;;;;;;;2.13;1.23;;;;;;;;;;4965782;28;20104;-65
2021/06/02 14:09:42;;;;;;;3.83;1.48;;;;;;;;;;4951049;28;20096;-65
2021/06/02 14:12:30;;;;;;;1.75;1.25;;;;;;;;;;4962422;28;20065;-63
2021/06/02 14:15:14;;;;;;;1.67;1.30;;;;;;;;;;4949862;28;20092;-63
2021/06/02 14:17:58;;;;;;;1.92;1.38;;;;;;;;;;4938059;28;20073;-64
2021/06/02 14:20:42;;;;;;;4.65;1.13;;;;;;;;;;4966953;28;20092;-65
2021/06/02 14:23:26;;;;;;;6.57;1.98;;;;;;;;;;4968151;28;20047;-65
2021/06/02 14:26:12;;;;;;;3.50;1.40;;;;;;;;;;4952330;28;20053;-65
2021/06/02 14:28:56;;;;;;;1.83;1.27;;;;;;;;;;4969491;28;20053;-63
2021/06/02 14:31:43;;;;;;;2.15;1.50;;;;;;;;;;4970410;28;20140;-65
2021/06/02 14:34:27;;;;;;;2.83;1.55;;;;;;;;;;4967694;28;20264;-65
2021/06/02 14:37:12;;;;;;;2.70;1.70;;;;;;;;;;4966217;28;20984;-65
2021/06/02 14:39:56;;;;;;;2.25;1.52;;;;;;;;;;4967865;28;20080;-65
2021/06/02 14:42:38;;;;;;;2.90;1.20;;;;;;;;;;4950619;28;20060;-64
2021/06/02 14:45:04;;;;;;;5.95;1.52;;;;;;;;;;4966455;28;20117;-65
2021/06/02 14:47:30;;;;;;;2.08;1.30;;;;;;;;;;4968192;28;20437;-64
2021/06/02 14:49:58;;;;;;;1.95;1.20;;;;;;;;;;4966032;28;20030;-64
2021/06/02 14:52:25;;;;;;;2.10;1.20;;;;;;;;;;4933030;28;20954;-65
2021/06/02 14:54:50;;;;;;;3.15;2.00;;;;;;;;;;4951294;28;20301;-64
2021/06/02 14:57:16;;;;;;;1.17;1.10;;;;;;;;;;4933942;28;20132;-64
2021/06/02 14:59:41;;;;;;;3.28;1.10;;;;;;;;;;4948066;28;20068;-64
2021/06/02 15:02:07;;;;;;;4.60;1.60;;;;;;;;;;4934145;28;20099;-64
2021/06/02 15:04:32;;;;;;;1.70;1.20;;;;;;;;;;4964758;28;20717;-65
2021/06/02 15:06:59;;;;;;;2.28;1.60;;;;;;;;;;4945845;28;20045;-64
2021/06/02 15:09:24;;;;;;;1.63;1.50;;;;;;;;;;4942745;28;20038;-66
2021/06/02 15:11:51;;;;;;;2.38;1.42;;;;;;;;;;4964736;28;20041;-64
2021/06/02 15:14:20;;;;;;;2.22;1.58;;;;;;;;;;4950441;28;20117;-65
2021/06/02 15:16:50;;;;;;;4.82;1.85;;;;;;;;;;4948564;28;20133;-63
2021/06/02 15:19:17;;;;;;;7.43;1.45;;;;;;;;;;4947800;28;20041;-64
2021/06/02 15:21:43;;;;;;;9.02;1.70;;;;;;;;;;4965754;28;20042;-64